createdAt,value
2023-04-11T00:02:11.371Z,100065.78
2023-04-11T00:05:01.043Z,100051.63
2023-04-11T00:07:50.810Z,100042.16
2023-04-11T00:10:42.439Z,100044.63
2023-04-11T00:13:32.639Z,100041.31
2023-04-11T00:16:21.785Z,100033.13
2023-04-11T00:19:10.879Z,100019.59
2023-04-11T00:22:00.634Z,100023.66
2023-04-11T00:24:49.883Z,100008.06
2023-04-11T00:27:40.509Z,100006.44
2023-04-11T00:30:29.856Z,99995.16
2023-04-11T00:33:18.439Z,99990.22
2023-04-11T00:36:07.955Z,99981.56
2023-04-11T00:38:58.481Z,99974.00
2023-04-11T00:41:47.675Z,99975.44
2023-04-11T00:44:37.688Z,99969.09
2023-04-11T00:47:26.464Z,99959.22
2023-04-11T00:50:15.964Z,99951.22
2023-04-11T00:53:04.819Z,99953.47
2023-04-11T00:55:53.694Z,99946.50
2023-04-11T00:58:42.773Z,99942.56
2023-04-11T01:01:36.170Z,99928.19
2023-04-11T01:04:26.211Z,99933.78
2023-04-11T01:07:15.298Z,99933.94
2023-04-11T01:10:05.697Z,99938.91
2023-04-11T01:12:54.953Z,99931.28
2023-04-11T01:15:43.578Z,99932.94
2023-04-11T01:18:33.857Z,99936.44
2023-04-11T01:21:22.925Z,99943.81
2023-04-11T01:24:13.169Z,99941.56
2023-04-11T01:27:03.365Z,99946.25
2023-04-11T01:29:52.395Z,99947.28
2023-04-11T01:32:41.650Z,99947.72
2023-04-11T01:35:30.680Z,99941.97
2023-04-11T01:38:19.320Z,99952.66
2023-04-11T01:41:10.005Z,99940.31
2023-04-11T01:43:58.674Z,99944.84
2023-04-11T01:46:53.804Z,99938.47
2023-04-11T01:49:42.419Z,99937.44
2023-04-11T01:52:31.115Z,99912.63
2023-04-11T01:55:20.357Z,99898.06
2023-04-11T01:58:10.658Z,99878.53
2023-04-11T02:01:00.082Z,99882.84
2023-04-11T02:03:49.226Z,99873.81
2023-04-11T02:06:38.650Z,99866.84
2023-04-11T02:09:27.892Z,99858.41
2023-04-11T02:12:16.970Z,99853.72
2023-04-11T02:15:08.966Z,99842.44
2023-04-11T02:18:00.335Z,99831.94
2023-04-11T02:20:50.319Z,99818.00
2023-04-11T02:23:39.583Z,99812.25
2023-04-11T02:26:29.155Z,99806.13
2023-04-11T02:29:18.049Z,99790.69
2023-04-11T02:32:08.669Z,99793.38
2023-04-11T02:34:58.012Z,99785.19
2023-04-11T02:37:46.916Z,99786.41
2023-04-11T02:40:36.238Z,99781.63
2023-04-11T02:43:25.058Z,99774.81
2023-04-11T02:46:14.289Z,99772.75
2023-04-11T02:49:05.160Z,99769.91
2023-04-11T02:51:54.536Z,99770.75
2023-04-11T02:54:43.488Z,99767.44
2023-04-11T02:57:32.592Z,99764.81
2023-04-11T03:00:22.178Z,99763.38
2023-04-11T03:03:12.390Z,99757.41
2023-04-11T03:06:03.565Z,99763.38
2023-04-11T03:08:53.016Z,99756.81
2023-04-11T03:11:44.218Z,99761.72
2023-04-11T03:14:33.993Z,99759.66
2023-04-11T03:17:22.595Z,99758.06
2023-04-11T03:20:13.740Z,99751.91
2023-04-11T03:23:03.843Z,99739.78
2023-04-11T03:25:53.733Z,99740.41
2023-04-11T03:28:42.398Z,99736.31
2023-04-11T03:31:31.095Z,99730.53
2023-04-11T03:34:19.707Z,99730.91
2023-04-11T03:37:08.439Z,99730.91
2023-04-11T03:39:58.534Z,99738.72
2023-04-11T03:42:47.678Z,99722.31
2023-04-11T03:45:36.456Z,99719.78
2023-04-11T03:48:26.426Z,99724.78
2023-04-11T03:51:15.504Z,99716.38
2023-04-11T03:54:04.594Z,99717.00
2023-04-11T03:56:55.672Z,99715.34
2023-04-11T03:59:44.933Z,99693.97
2023-04-11T04:02:34.030Z,99707.09
2023-04-11T04:05:23.276Z,99709.75
2023-04-11T04:08:12.508Z,99710.00
2023-04-11T04:11:01.574Z,99707.53
2023-04-11T04:13:51.962Z,99709.38
2023-04-11T04:16:41.088Z,99705.69
2023-04-11T04:19:30.087Z,99705.84
2023-04-11T04:22:18.958Z,99697.69
2023-04-11T04:25:09.573Z,99683.47
2023-04-11T04:28:00.849Z,99689.41
2023-04-11T04:30:54.275Z,99690.28
2023-04-11T04:33:43.938Z,99710.16
2023-04-11T04:36:33.008Z,99704.22
2023-04-11T04:39:22.053Z,99715.53
2023-04-11T04:42:11.035Z,99708.75
2023-04-11T04:45:00.268Z,99707.56
2023-04-11T04:47:50.924Z,99705.94
2023-04-11T04:50:40.555Z,99714.13
2023-04-11T04:53:29.435Z,99727.44
2023-04-11T04:56:18.638Z,99717.75
2023-04-11T04:59:08.094Z,99717.72
2023-04-11T05:01:56.935Z,99713.66
2023-04-11T05:04:50.436Z,99701.34
2023-04-11T05:07:40.101Z,99699.47
2023-04-11T05:10:28.880Z,99701.19
2023-04-11T05:13:18.429Z,99704.69
2023-04-11T05:16:08.400Z,99693.63
2023-04-11T05:18:57.204Z,99692.78
2023-04-11T05:21:47.752Z,99685.81
2023-04-11T05:24:37.090Z,99688.25
2023-04-11T05:27:27.457Z,99678.81
2023-04-11T05:30:16.740Z,99686.56
2023-04-11T05:33:05.567Z,99676.69
2023-04-11T05:35:54.400Z,99674.25
2023-04-11T05:38:44.890Z,99682.44
2023-04-11T05:41:33.615Z,99681.84
2023-04-11T05:44:22.212Z,99673.47
2023-04-11T05:47:11.614Z,99668.56
2023-04-11T05:50:00.249Z,99670.13
2023-04-11T05:52:48.892Z,99667.28
2023-04-11T05:55:39.528Z,99661.97
2023-04-11T05:58:29.694Z,99662.31
2023-04-11T06:01:19.427Z,99654.09
2023-04-11T06:04:08.306Z,99652.88
2023-04-11T06:06:57.793Z,99657.81
2023-04-11T06:09:46.611Z,99645.06
2023-04-11T06:12:36.624Z,99659.06
2023-04-11T06:15:26.584Z,99651.69
2023-04-11T06:18:15.847Z,99652.97
2023-04-11T06:21:04.918Z,99659.53
2023-04-11T06:23:54.371Z,99663.41
2023-04-11T06:26:43.726Z,99663.00
2023-04-11T06:29:37.504Z,99668.06
2023-04-11T06:32:26.452Z,99670.56
2023-04-11T06:35:15.130Z,99666.84
2023-04-11T06:38:03.789Z,99672.78
2023-04-11T06:40:54.526Z,99679.59
2023-04-11T06:43:46.132Z,99683.63
2023-04-11T06:46:36.170Z,99686.19
2023-04-11T06:49:24.768Z,99693.94
2023-04-11T06:52:13.339Z,99698.44
2023-04-11T06:55:01.916Z,99703.72
2023-04-11T06:57:50.650Z,99711.16
2023-04-11T07:00:39.432Z,99710.31
2023-04-11T07:03:31.096Z,99707.50
2023-04-11T07:06:20.392Z,99706.28
2023-04-11T07:09:12.658Z,99712.38
2023-04-11T07:12:01.745Z,99716.34
2023-04-11T07:14:50.560Z,99722.06
2023-04-11T07:17:39.752Z,99722.31
2023-04-11T07:20:31.152Z,99720.03
2023-04-11T07:23:22.399Z,99727.44
2023-04-11T07:26:12.487Z,99731.34
2023-04-11T07:29:01.548Z,99726.25
2023-04-11T07:31:51.594Z,99721.94
2023-04-11T07:34:40.970Z,99723.56
2023-04-11T07:37:32.593Z,99729.34
2023-04-11T07:40:22.521Z,99728.06
2023-04-11T07:43:11.177Z,99734.69
2023-04-11T07:46:00.869Z,99736.31
2023-04-11T07:48:50.138Z,99735.88
2023-04-11T07:51:38.759Z,99746.56
2023-04-11T07:54:32.092Z,99735.88
2023-04-11T07:57:20.795Z,99735.84
2023-04-11T08:00:13.269Z,99732.19
2023-04-11T08:03:04.716Z,99736.44
2023-04-11T08:05:53.657Z,99734.19
2023-04-11T08:08:43.221Z,99729.22
2023-04-11T08:11:34.595Z,99731.06
2023-04-11T08:14:23.476Z,99731.09
2023-04-11T08:17:27.154Z,99722.72
2023-04-11T08:20:17.918Z,99720.47
2023-04-11T08:23:08.672Z,99712.91
2023-04-11T08:25:57.458Z,99711.25
2023-04-11T08:28:47.686Z,99720.31
2023-04-11T08:31:36.255Z,99729.34
2023-04-11T08:34:24.866Z,99729.34
2023-04-11T08:37:13.879Z,99717.84
2023-04-11T08:40:06.496Z,99720.31
2023-04-11T08:43:00.533Z,99716.59
2023-04-11T08:45:50.739Z,99725.41
2023-04-11T08:48:40.293Z,99725.22
2023-04-11T08:51:28.941Z,99728.47
2023-04-11T08:54:17.576Z,99741.22
2023-04-11T08:57:06.479Z,99748.63
2023-04-11T08:59:56.739Z,99746.13
2023-04-11T09:03:00.641Z,99750.44
2023-04-11T09:05:49.611Z,99745.72
2023-04-11T09:08:40.463Z,99756.81
2023-04-11T09:11:29.167Z,99753.94
2023-04-11T09:14:17.784Z,99760.06
2023-04-11T09:17:13.163Z,99758.84
2023-04-11T09:20:17.809Z,99755.97
2023-04-11T09:23:06.630Z,99740.56
2023-04-11T09:25:56.254Z,99743.66
2023-04-11T09:28:52.498Z,99730.06
2023-04-11T09:31:42.498Z,99740.75
2023-04-11T09:34:31.293Z,99732.16
2023-04-11T09:37:21.629Z,99734.63
2023-04-11T09:40:11.482Z,99728.84
2023-04-11T09:43:01.339Z,99712.81
2023-04-11T09:45:54.574Z,99711.59
2023-04-11T09:49:01.366Z,99708.31
2023-04-11T09:51:50.795Z,99702.16
2023-04-11T09:54:41.068Z,99698.44
2023-04-11T09:57:30.966Z,99696.81
2023-04-11T10:00:21.818Z,99700.91
2023-04-11T10:03:10.599Z,99697.41
2023-04-11T10:05:59.280Z,99699.66
2023-04-11T10:08:47.981Z,99700.91
2023-04-11T10:11:38.260Z,99693.34
2023-04-11T10:14:46.741Z,99701.34
2023-04-11T10:17:36.418Z,99697.63
2023-04-11T10:20:45.190Z,99692.31
2023-04-11T10:24:08.510Z,99688.59
2023-04-11T10:26:59.553Z,99691.84
2023-04-11T10:29:52.964Z,99688.75
2023-04-11T10:32:42.762Z,99685.66
2023-04-11T10:35:31.590Z,99691.78
2023-04-11T10:38:49.227Z,99680.66
2023-04-11T10:41:38.284Z,99690.88
2023-04-11T10:44:28.363Z,99675.91
2023-04-11T10:47:19.127Z,99687.81
2023-04-11T10:50:38.067Z,99695.78
2023-04-11T10:53:41.153Z,99701.50
2023-04-11T10:56:57.724Z,99742.75
2023-04-11T11:00:00.615Z,99773.00
2023-04-11T11:02:49.609Z,99778.69
2023-04-11T11:05:39.920Z,99800.88
2023-04-11T11:08:30.524Z,99799.88
2023-04-11T11:11:20.898Z,99767.28
2023-04-11T11:14:09.393Z,99745.97
2023-04-11T11:16:59.722Z,99744.72
2023-04-11T11:19:49.407Z,99750.06
2023-04-11T11:22:38.019Z,99743.09
2023-04-11T11:25:27.181Z,99754.19
2023-04-11T11:28:15.731Z,99751.34
2023-04-11T11:31:04.373Z,99761.97
2023-04-11T11:33:58.206Z,99784.97
2023-04-11T11:36:49.954Z,99811.66
2023-04-11T11:39:38.700Z,99842.44
2023-04-11T11:42:28.033Z,99858.44
2023-04-11T11:45:16.991Z,99863.38
2023-04-11T11:48:06.033Z,99856.16
2023-04-11T11:50:59.678Z,99854.34
2023-04-11T11:54:04.807Z,99851.47
2023-04-11T11:56:53.666Z,99847.78
2023-04-11T11:59:42.680Z,99842.19
2023-04-11T12:02:31.526Z,99836.66
2023-04-11T12:05:20.317Z,99837.03
2023-04-11T12:08:10.474Z,99841.34
2023-04-11T12:10:59.055Z,99841.50
2023-04-11T12:13:47.725Z,99840.28
2023-04-11T12:16:36.698Z,99846.81
2023-04-11T12:19:25.430Z,99850.13
2023-04-11T12:22:14.017Z,99846.41
2023-04-11T12:25:08.266Z,99853.00
2023-04-11T12:27:56.884Z,99855.91
2023-04-11T12:30:45.458Z,99855.09
2023-04-11T12:33:34.082Z,99845.66
2023-04-11T12:36:22.958Z,99845.84
2023-04-11T12:39:11.567Z,99841.94
2023-04-11T12:42:01.548Z,99845.66
2023-04-11T12:44:50.851Z,99834.97
2023-04-11T12:47:39.734Z,99839.03
2023-04-11T12:50:38.259Z,99833.50
2023-04-11T12:53:28.442Z,99829.63
2023-04-11T12:56:17.147Z,99836.16
2023-04-11T12:59:07.504Z,99832.41
2023-04-11T13:01:56.261Z,99824.19
2023-04-11T13:04:45.151Z,99829.34
2023-04-11T13:07:37.893Z,99827.56
2023-04-11T13:10:26.545Z,99824.28
2023-04-11T13:13:18.486Z,99822.81
2023-04-11T13:16:10.332Z,99828.16
2023-04-11T13:18:59.451Z,99825.91
2023-04-11T13:21:48.095Z,99818.94
2023-04-11T13:24:36.682Z,99832.31
2023-04-11T13:27:25.632Z,99826.34
2023-04-11T13:30:15.155Z,99829.63
2023-04-11T13:33:06.719Z,99828.78
2023-04-11T13:35:55.399Z,99820.56
2023-04-11T13:38:43.973Z,99819.31
2023-04-11T13:41:32.942Z,99826.69
2023-04-11T13:44:21.719Z,99827.72
2023-04-11T13:47:10.468Z,99827.13
2023-04-11T13:50:00.960Z,99836.75
2023-04-11T13:52:49.920Z,99826.28
2023-04-11T13:55:38.594Z,99835.72
2023-04-11T13:58:27.344Z,99828.75
2023-04-11T14:01:16.536Z,99828.16
2023-04-11T14:04:05.747Z,99830.81
2023-04-11T14:06:55.811Z,99851.59
2023-04-11T14:09:44.419Z,99832.91
2023-04-11T14:12:33.317Z,99831.69
2023-04-11T14:15:22.098Z,99830.03
2023-04-11T14:18:10.958Z,99838.88
2023-04-11T14:21:01.690Z,99838.25
2023-04-11T14:23:51.689Z,99839.00
2023-04-11T14:26:40.728Z,99835.91
2023-04-11T14:29:31.052Z,99841.47
2023-04-11T14:32:19.598Z,99836.50
2023-04-11T14:35:09.708Z,99841.88
2023-04-11T14:37:59.116Z,99840.63
2023-04-11T14:40:49.035Z,99846.97
2023-04-11T14:43:37.744Z,99861.59
2023-04-11T14:46:26.472Z,99862.84
2023-04-11T14:49:15.162Z,99878.03
2023-04-11T14:52:03.773Z,99891.16
2023-04-11T14:54:54.982Z,99898.53
2023-04-11T14:57:47.525Z,99927.34
2023-04-11T15:00:36.148Z,99931.25
2023-04-11T15:03:25.267Z,99940.09
2023-04-11T15:06:14.308Z,99927.34
2023-04-11T15:09:04.626Z,99922.41
2023-04-11T15:11:53.234Z,99932.72
2023-04-11T15:14:43.464Z,99936.41
2023-04-11T15:17:32.101Z,99937.06
2023-04-11T15:20:20.950Z,99939.72
2023-04-11T15:23:09.654Z,99939.31
2023-04-11T15:26:01.192Z,99932.50
2023-04-11T15:28:49.786Z,99920.00
2023-04-11T15:31:39.900Z,99905.63
2023-04-11T15:34:28.513Z,99892.09
2023-04-11T15:37:17.163Z,99897.00
2023-04-11T15:40:09.139Z,99906.66
2023-04-11T15:42:57.811Z,99902.34
2023-04-11T15:45:46.443Z,99893.34
2023-04-11T15:48:36.471Z,99900.31
2023-04-11T15:51:27.234Z,99896.19
2023-04-11T15:54:15.822Z,99899.69
2023-04-11T15:57:04.679Z,99906.50
2023-04-11T15:59:53.349Z,99903.19
2023-04-11T16:02:45.860Z,99914.72
2023-04-11T16:05:38.225Z,99908.53
2023-04-11T16:08:27.506Z,99906.50
2023-04-11T16:11:16.187Z,99913.88
2023-04-11T16:14:04.766Z,99917.34
2023-04-11T16:16:54.102Z,99920.06
2023-04-11T16:19:42.867Z,99917.19
2023-04-11T16:22:33.329Z,99902.34
2023-04-11T16:25:21.972Z,99905.63
2023-04-11T16:28:13.822Z,99903.19
2023-04-11T16:31:02.365Z,99905.22
2023-04-11T16:33:51.017Z,99914.88
2023-04-11T16:36:39.771Z,99925.53
2023-04-11T16:39:29.946Z,99936.50
2023-04-11T16:42:18.793Z,99928.25
2023-04-11T16:45:09.177Z,99925.38
2023-04-11T16:47:57.824Z,99916.31
2023-04-11T16:50:46.571Z,99925.78
2023-04-11T16:53:35.214Z,99933.22
2023-04-11T16:56:26.738Z,99922.47
2023-04-11T16:59:17.271Z,99901.09
2023-04-11T17:02:05.944Z,99908.09
2023-04-11T17:04:54.681Z,99916.09
2023-04-11T17:07:43.786Z,99912.97
2023-04-11T17:10:32.462Z,99908.06
2023-04-11T17:13:22.451Z,99921.00
2023-04-11T17:16:11.099Z,99916.69
2023-04-11T17:18:59.764Z,99926.53
2023-04-11T17:21:48.545Z,99927.56
2023-04-11T17:24:37.168Z,99926.34
2023-04-11T17:27:25.866Z,99925.50
2023-04-11T17:30:16.860Z,99925.50
2023-04-11T17:33:05.655Z,99930.47
2023-04-11T17:35:54.587Z,99938.06
2023-04-11T17:38:43.499Z,99940.13
2023-04-11T17:41:32.373Z,99936.84
2023-04-11T17:44:21.095Z,99942.59
2023-04-11T17:47:11.473Z,99940.94
2023-04-11T17:50:00.333Z,99951.22
2023-04-11T17:52:49.000Z,99954.66
2023-04-11T17:55:37.886Z,99958.19
2023-04-11T17:58:26.681Z,99956.38
2023-04-11T18:01:15.776Z,99965.00
2023-04-11T18:04:09.389Z,99970.56
2023-04-11T18:06:58.374Z,99972.59
2023-04-11T18:09:48.068Z,99968.50
2023-04-11T18:12:36.684Z,99982.28
2023-04-11T18:15:26.568Z,99987.81
2023-04-11T18:18:15.127Z,99986.59
2023-04-11T18:21:07.765Z,99996.03
2023-04-11T18:23:56.958Z,100003.03
2023-04-11T18:26:47.092Z,100012.47
2023-04-11T18:29:35.699Z,100028.91
2023-04-11T18:32:26.727Z,100043.91
2023-04-11T18:35:17.418Z,100040.44
2023-04-11T18:38:07.500Z,100053.78
2023-04-11T18:40:56.989Z,100068.44
2023-04-11T18:43:46.069Z,100079.31
2023-04-11T18:46:35.574Z,100088.16
2023-04-11T18:49:24.986Z,100107.47
2023-04-11T18:52:14.099Z,100118.16
2023-04-11T18:55:04.476Z,100145.25
2023-04-11T18:57:57.337Z,100148.16
2023-04-11T19:00:49.324Z,100156.16
2023-04-11T19:03:38.199Z,100151.84
2023-04-11T19:06:27.443Z,100157.19
2023-04-11T19:09:16.090Z,100148.75
2023-04-11T19:12:06.537Z,100154.72
2023-04-11T19:14:55.148Z,100145.69
2023-04-11T19:17:43.899Z,100141.94
2023-04-11T19:20:35.381Z,100149.16
2023-04-11T19:23:25.254Z,100131.69
2023-04-11T19:26:14.815Z,100126.16
2023-04-11T19:29:04.916Z,100128.00
2023-04-11T19:31:53.517Z,100121.00
2023-04-11T19:34:42.208Z,100122.22
2023-04-11T19:37:31.041Z,100115.25
2023-04-11T19:40:23.297Z,100125.94
2023-04-11T19:43:12.096Z,100124.91
2023-04-11T19:46:02.117Z,100123.91
2023-04-11T19:48:51.463Z,100123.91
2023-04-11T19:51:40.710Z,100123.91
2023-04-11T19:54:30.797Z,100114.84
2023-04-11T19:57:19.489Z,100104.16
2023-04-11T20:00:13.955Z,100106.19
2023-04-11T20:03:05.945Z,100104.97
2023-04-11T20:05:54.717Z,100112.38
2023-04-11T20:08:43.665Z,100103.94
2023-04-11T20:11:33.498Z,100110.53
2023-04-11T20:14:22.230Z,100111.97
2023-04-11T20:17:10.817Z,100103.53
2023-04-11T20:20:05.811Z,100111.34
2023-04-11T20:22:54.874Z,100103.34
2023-04-11T20:25:44.006Z,100099.22
2023-04-11T20:28:32.971Z,100099.22
2023-04-11T20:31:21.698Z,100091.47
2023-04-11T20:34:10.422Z,100091.84
2023-04-11T20:37:01.857Z,100093.50
2023-04-11T20:39:51.658Z,100096.41
2023-04-11T20:42:42.371Z,100092.28
2023-04-11T20:45:33.099Z,100091.06
2023-04-11T20:48:21.862Z,100093.50
2023-04-11T20:51:11.322Z,100091.47
2023-04-11T20:54:01.379Z,100097.63
2023-04-11T20:56:50.411Z,100089.00
2023-04-11T20:59:40.484Z,100086.31
2023-04-11T21:02:29.591Z,100079.34
2023-04-11T21:05:21.355Z,100089.78
2023-04-11T21:08:12.040Z,100084.88
2023-04-11T21:11:03.765Z,100091.03
2023-04-11T21:13:53.642Z,100086.09
2023-04-11T21:16:42.356Z,100088.97
2023-04-11T21:19:33.632Z,100080.78
2023-04-11T21:22:22.515Z,100076.47
2023-04-11T21:25:11.783Z,100080.38
2023-04-11T21:28:01.980Z,100085.50
2023-04-11T21:30:50.707Z,100086.09
2023-04-11T21:33:39.533Z,100092.47
2023-04-11T21:36:28.170Z,100091.88
2023-04-11T21:39:16.930Z,100091.88
2023-04-11T21:42:06.000Z,100100.50
2023-04-11T21:44:55.984Z,100103.81
2023-04-11T21:47:44.900Z,100105.81
2023-04-11T21:50:33.528Z,100101.53
2023-04-11T21:53:22.126Z,100099.06
2023-04-11T21:56:11.418Z,100106.25
2023-04-11T21:59:00.126Z,100100.91
2023-04-11T22:01:50.200Z,100098.66
2023-04-11T22:04:47.848Z,100109.34
2023-04-11T22:07:47.429Z,100102.97
2023-04-11T22:10:47.359Z,100099.28
2023-04-11T22:13:38.186Z,100102.56
2023-04-11T22:16:30.675Z,100099.69
2023-04-11T22:19:21.041Z,100108.31
2023-04-11T22:22:10.403Z,100112.81
2023-04-11T22:24:59.162Z,100116.94
2023-04-11T22:27:47.848Z,100121.84
2023-04-11T22:30:38.466Z,100116.94
2023-04-11T22:33:27.898Z,100113.66
2023-04-11T22:36:18.585Z,100115.72
2023-04-11T22:39:08.891Z,100113.03
2023-04-11T22:41:57.835Z,100109.94
2023-04-11T22:44:46.977Z,100107.88
2023-04-11T22:47:38.237Z,100103.38
2023-04-11T22:50:27.093Z,100111.13
2023-04-11T22:53:18.690Z,100105.38
2023-04-11T22:56:08.337Z,100107.09
2023-04-11T22:58:57.041Z,100103.78
2023-04-11T23:01:45.771Z,100098.44
2023-04-11T23:04:34.591Z,100108.31
2023-04-11T23:07:25.987Z,100096.41
2023-04-11T23:10:16.134Z,100102.56
2023-04-11T23:13:08.081Z,100093.50
2023-04-11T23:15:56.867Z,100094.97
2023-04-11T23:18:45.648Z,100091.06
2023-04-11T23:21:34.361Z,100084.69
2023-04-11T23:24:23.019Z,100093.75
2023-04-11T23:27:13.342Z,100083.06
2023-04-11T23:30:02.049Z,100085.31
2023-04-11T23:32:51.196Z,100082.84
2023-04-11T23:35:39.891Z,100068.88
2023-04-11T23:38:28.910Z,100065.78
2023-04-11T23:41:17.574Z,100066.81
2023-04-11T23:44:07.957Z,100075.44
2023-04-11T23:46:56.746Z,100064.16
2023-04-11T23:49:45.724Z,100061.03
2023-04-11T23:52:35.882Z,100056.31
2023-04-11T23:55:24.662Z,100053.63
2023-04-11T23:58:13.434Z,100052.84
